Time;durP1;ratioP1;P1;durP2;ratioP2;P2;SDS_P1;SDS_P2;PMS_P1;PMS_P2;Temp;Humidity;BMP_temperature;BMP_pressure;BME280_temperature;BME280_humidity;BME280_pressure;Samples;Min_cycle;Max_cycle;Signal;HPM_P1;HPM_P2
2022/05/10 00:01:18;;;;;;;;;;;;;;;;;;5091838;27;20300;-69
2022/05/10 00:03:44;;;;;;;;;;;;;;;;;;5091082;28;19919;-68
2022/05/10 00:06:10;;;;;;;;;;;;;;;;;;5091076;28;20003;-68
2022/05/10 00:08:36;;;;;;;;;;;;;;;;;;5091097;28;19962;-69
2022/05/10 00:11:02;;;;;;;;;;;;;;;;;;5090881;28;19943;-68
2022/05/10 00:13:28;;;;;;;;;;;;;;;;;;5090960;28;19956;-68
2022/05/10 00:17:54;;;;;;;;;;;;;;;;;;5090878;28;19916;-68
2022/05/10 00:20:20;;;;;;;;;;;;;;;;;;5091160;28;19935;-68
2022/05/10 00:22:46;;;;;;;;;;;;;;;;;;5091273;28;19908;-68
2022/05/10 00:27:20;;;;;;;;;;;;;;;;;;5091580;27;19917;-68
2022/05/10 00:29:46;;;;;;;;;;;;;;;;;;5091257;28;19912;-68
2022/05/10 00:32:12;;;;;;;;;;;;;;;;;;5090773;28;19909;-68
2022/05/10 00:34:38;;;;;;;;;;;;;;;;;;5091154;28;19908;-67
2022/05/10 00:37:04;;;;;;;;;;;;;;;;;;5091557;28;19936;-68
2022/05/10 00:39:30;;;;;;;;;;;;;;;;;;5090594;28;19919;-68
2022/05/10 00:41:56;;;;;;;;;;;;;;;;;;5091332;28;19909;-68
2022/05/10 00:44:22;;;;;;;;;;;;;;;;;;5091071;28;20361;-68
2022/05/10 00:46:48;;;;;;;;;;;;;;;;;;5090364;28;19961;-68
2022/05/10 00:49:14;;;;;;;;;;;;;;;;;;5091336;28;19916;-69
2022/05/10 00:51:40;;;;;;;;;;;;;;;;;;5090805;28;20390;-69
2022/05/10 00:54:06;;;;;;;;;;;;;;;;;;5090289;28;19909;-69
2022/05/10 00:56:32;;;;;;;;;;;;;;;;;;5090618;28;20006;-69
2022/05/10 00:58:58;;;;;;;;;;;;;;;;;;5090610;28;20383;-69
2022/05/10 01:01:24;;;;;;;;;;;;;;;;;;5090235;28;19908;-69
2022/05/10 01:03:50;;;;;;;;;;;;;;;;;;5090502;28;19916;-69
2022/05/10 01:06:16;;;;;;;;;;;;;;;;;;5090076;28;19952;-69
2022/05/10 01:08:42;;;;;;;;;;;;;;;;;;5090657;28;19908;-69
2022/05/10 01:11:08;;;;;;;;;;;;;;;;;;5090704;28;20331;-69
2022/05/10 01:13:34;;;;;;;;;;;;;;;;;;5090220;28;19909;-69
2022/05/10 01:16:00;;;;;;;;;;;;;;;;;;5090628;28;19912;-69
2022/05/10 01:18:26;;;;;;;;;;;;;;;;;;5090352;28;19908;-69
2022/05/10 01:20:52;;;;;;;;;;;;;;;;;;5089978;28;20326;-69
2022/05/10 01:23:18;;;;;;;;;;;;;;;;;;5090385;28;19931;-69
2022/05/10 01:25:44;;;;;;;;;;;;;;;;;;5097246;28;20376;-69
2022/05/10 01:28:10;;;;;;;;;;;;;;;;;;5110167;28;20010;-69
2022/05/10 01:30:36;;;;;;;;;;;;;;;;;;5110473;28;19915;-69
2022/05/10 01:35:47;;;;;;;;;;;;;;;;;;5109958;28;20341;-69
2022/05/10 01:38:13;;;;;;;;;;;;;;;;;;5099281;28;20015;-68
2022/05/10 01:40:39;;;;;;;;;;;;;;;;;;5096659;28;19915;-69
2022/05/10 01:43:05;;;;;;;;;;;;;;;;;;5096271;28;19909;-69
2022/05/10 01:45:31;;;;;;;;;;;;;;;;;;5096482;28;19918;-70
2022/05/10 01:47:57;;;;;;;;;;;;;;;;;;5096689;28;20376;-69
2022/05/10 01:50:23;;;;;;;;;;;;;;;;;;5096177;28;19935;-69
2022/05/10 01:52:49;;;;;;;;;;;;;;;;;;5096581;28;19915;-69
2022/05/10 01:55:15;;;;;;;;;;;;;;;;;;5096440;28;20326;-69
2022/05/10 01:57:41;;;;;;;;;;;;;;;;;;5095937;28;19908;-69
2022/05/10 02:00:07;;;;;;;;;;;;;;;;;;5096277;28;19919;-69
2022/05/10 02:02:33;;;;;;;;;;;;;;;;;;5096098;28;19943;-68
2022/05/10 02:04:59;;;;;;;;;;;;;;;;;;5096367;28;19950;-69
2022/05/10 02:07:26;;;;;;;;;;;;;;;;;;5096175;28;20289;-69
2022/05/10 02:09:52;;;;;;;;;;;;;;;;;;5077673;28;19912;-69
2022/05/10 02:12:18;;;;;;;;;;;;;;;;;;5096071;28;20375;-69
2022/05/10 02:14:44;;;;;;;;;;;;;;;;;;5096047;28;19908;-69
2022/05/10 02:17:10;;;;;;;;;;;;;;;;;;5095739;28;19912;-68
2022/05/10 02:19:36;;;;;;;;;;;;;;;;;;5095943;28;19908;-69
2022/05/10 02:22:02;;;;;;;;;;;;;;;;;;5077788;28;19915;-69
2022/05/10 02:24:28;;;;;;;;;;;;;;;;;;5095713;28;19959;-69
2022/05/10 02:26:54;;;;;;;;;;;;;;;;;;5077497;28;19943;-69
2022/05/10 02:29:20;;;;;;;;;;;;;;;;;;5095762;28;19912;-69
2022/05/10 02:34:30;;;;;;;;;;;;;;;;;;5095753;28;20058;-69
2022/05/10 02:36:56;;;;;;;;;;;;;;;;;;5095644;28;19962;-68
2022/05/10 02:39:22;;;;;;;;;;;;;;;;;;5095132;28;19908;-68
2022/05/10 02:41:48;;;;;;;;;;;;;;;;;;5095707;28;20384;-69
2022/05/10 02:44:14;;;;;;;;;;;;;;;;;;5095885;28;19915;-69
2022/05/10 02:46:40;;;;;;;;;;;;;;;;;;5094950;28;20382;-69
2022/05/10 02:49:06;;;;;;;;;;;;;;;;;;5094907;28;19940;-69
2022/05/10 02:51:32;;;;;;;;;;;;;;;;;;5095417;28;19931;-68
2022/05/10 02:53:58;;;;;;;;;;;;;;;;;;5077131;28;19958;-68
2022/05/10 02:56:24;;;;;;;;;;;;;;;;;;5095226;28;19977;-69
2022/05/10 02:58:50;;;;;;;;;;;;;;;;;;5094807;28;19999;-68
2022/05/10 03:01:16;;;;;;;;;;;;;;;;;;5095156;28;19991;-69
2022/05/10 03:03:42;;;;;;;;;;;;;;;;;;5095122;28;19912;-69
2022/05/10 03:06:08;;;;;;;;;;;;;;;;;;5094595;28;19923;-69
2022/05/10 03:08:34;;;;;;;;;;;;;;;;;;5094968;28;19915;-69
2022/05/10 03:11:00;;;;;;;;;;;;;;;;;;5094997;28;19965;-69
2022/05/10 03:13:26;;;;;;;;;;;;;;;;;;5094563;28;20265;-69
2022/05/10 03:15:52;;;;;;;;;;;;;;;;;;5094880;28;19953;-70
2022/05/10 03:18:18;;;;;;;;;;;;;;;;;;5094855;28;19977;-69
2022/05/10 03:20:44;;;;;;;;;;;;;;;;;;5094676;28;19961;-69
2022/05/10 03:23:10;;;;;;;;;;;;;;;;;;5095338;28;20284;-69
2022/05/10 03:25:36;;;;;;;;;;;;;;;;;;5094402;28;19926;-69
2022/05/10 03:28:02;;;;;;;;;;;;;;;;;;5094286;28;19995;-69
2022/05/10 03:30:28;;;;;;;;;;;;;;;;;;5094618;28;20425;-69
2022/05/10 03:32:54;;;;;;;;;;;;;;;;;;5094505;28;19908;-70
2022/05/10 03:35:20;;;;;;;;;;;;;;;;;;5094196;28;20376;-69
2022/05/10 03:37:46;;;;;;;;;;;;;;;;;;5076267;28;19915;-69
2022/05/10 03:40:12;;;;;;;;;;;;;;;;;;5094398;28;19915;-69
2022/05/10 03:42:38;;;;;;;;;;;;;;;;;;5094019;28;20306;-69
2022/05/10 03:45:04;;;;;;;;;;;;;;;;;;5094252;28;19915;-69
2022/05/10 03:47:30;;;;;;;;;;;;;;;;;;5094285;28;20329;-69
2022/05/10 03:49:56;;;;;;;;;;;;;;;;;;5093893;28;20441;-69
2022/05/10 03:52:22;;;;;;;;;;;;;;;;;;5094234;28;20268;-69
2022/05/10 03:54:48;;;;;;;;;;;;;;;;;;5094254;28;19908;-69
2022/05/10 03:57:14;;;;;;;;;;;;;;;;;;5093766;28;19908;-69
2022/05/10 03:59:43;;;;;;;;;;;;;;;;;;5094115;28;19962;-69
2022/05/10 04:02:09;;;;;;;;;;;;;;;;;;5093686;28;19935;-69
2022/05/10 04:04:35;;;;;;;;;;;;;;;;;;5094007;28;19915;-69
2022/05/10 04:07:01;;;;;;;;;;;;;;;;;;5093996;28;19927;-69
2022/05/10 04:09:27;;;;;;;;;;;;;;;;;;5093575;28;20318;-69
2022/05/10 04:11:53;;;;;;;;;;;;;;;;;;5093986;28;19908;-69
2022/05/10 04:14:19;;;;;;;;;;;;;;;;;;5093940;28;19961;-69
2022/05/10 04:16:45;;;;;;;;;;;;;;;;;;5093496;28;19908;-69
2022/05/10 04:19:11;;;;;;;;;;;;;;;;;;5093890;28;20249;-68
2022/05/10 04:21:37;;;;;;;;;;;;;;;;;;5094036;28;19953;-67
2022/05/10 04:24:03;;;;;;;;;;;;;;;;;;5093524;28;19915;-68
2022/05/10 04:26:29;;;;;;;;;;;;;;;;;;5093727;28;20336;-68
2022/05/10 04:28:55;;;;;;;;;;;;;;;;;;5093816;28;19947;-68
2022/05/10 04:31:21;;;;;;;;;;;;;;;;;;5093382;28;19994;-67
2022/05/10 04:33:47;;;;;;;;;;;;;;;;;;5093770;28;19997;-67
2022/05/10 04:36:13;;;;;;;;;;;;;;;;;;5093733;28;19908;-68
2022/05/10 04:38:39;;;;;;;;;;;;;;;;;;5093275;28;19916;-68
2022/05/10 04:43:50;;;;;;;;;;;;;;;;;;5093797;28;20344;-74
2022/05/10 04:46:16;;;;;;;;;;;;;;;;;;5093112;28;19981;-74
2022/05/10 04:48:42;;;;;;;;;;;;;;;;;;5075424;28;19916;-73
2022/05/10 04:51:08;;;;;;;;;;;;;;;;;;5093257;28;19908;-73
2022/05/10 04:53:34;;;;;;;;;;;;;;;;;;5093945;28;19915;-73
2022/05/10 04:56:00;;;;;;;;;;;;;;;;;;5093486;28;19912;-73
2022/05/10 04:58:26;;;;;;;;;;;;;;;;;;5093084;28;19908;-74
2022/05/10 05:00:52;;;;;;;;;;;;;;;;;;5093595;28;20443;-74
2022/05/10 05:03:18;;;;;;;;;;;;;;;;;;5093916;28;19953;-69
2022/05/10 05:05:44;;;;;;;;;;;;;;;;;;5093277;28;19912;-72
2022/05/10 05:08:10;;;;;;;;;;;;;;;;;;5106198;28;20031;-72
2022/05/10 05:10:36;;;;;;;;;;;;;;;;;;5098394;28;19912;-71
2022/05/10 05:13:02;;;;;;;;;;;;;;;;;;5108533;28;19918;-69
2022/05/10 05:15:28;;;;;;;;;;;;;;;;;;5100274;28;19916;-70
2022/05/10 05:17:54;;;;;;;;;;;;;;;;;;5100477;28;20361;-70
2022/05/10 05:20:20;;;;;;;;;;;;;;;;;;5095151;28;19912;-71
2022/05/10 05:22:46;;;;;;;;;;;;;;;;;;5090591;28;19959;-75
2022/05/10 05:25:12;;;;;;;;;;;;;;;;;;5105098;28;19920;-72
2022/05/10 05:27:38;;;;;;;;;;;;;;;;;;5079952;28;19919;-72
2022/05/10 05:30:04;;;;;;;;;;;;;;;;;;5087036;28;19912;-71
2022/05/10 05:32:30;;;;;;;;;;;;;;;;;;5087543;28;19920;-72
2022/05/10 05:34:56;;;;;;;;;;;;;;;;;;5085256;28;19908;-71
2022/05/10 05:39:03;;;;;;;;;;;;;;;;;;5146320;27;19915;-69
2022/05/10 05:43:51;;;;;;;;;;;;;;;;;;5092949;27;19924;-66
2022/05/10 05:48:01;;;;;;;;;;;;;;;;;;5151382;27;20010;-68
2022/05/10 05:52:25;;;;;;;;;;;;;;;;;;5088699;27;19916;-68
2022/05/10 05:54:51;;;;;;;;;;;;;;;;;;5087185;28;19913;-68
2022/05/10 05:57:17;;;;;;;;;;;;;;;;;;5087486;28;19915;-69
2022/05/10 05:59:43;;;;;;;;;;;;;;;;;;5086313;28;20406;-69
2022/05/10 06:06:46;;;;;;;;;;;;;;;;;;5148923;27;19912;-69
2022/05/10 06:09:26;;;;;;;;;;;;;;;;;;5088507;27;20392;-69
2022/05/10 06:11:52;;;;;;;;;;;;;;;;;;5088180;28;19916;-69
2022/05/10 06:14:18;;;;;;;;;;;;;;;;;;5085554;28;19918;-70
2022/05/10 06:16:44;;;;;;;;;;;;;;;;;;5082367;28;19919;-70
2022/05/10 06:21:05;;;;;;;;;;;;;;;;;;5090297;28;19922;-69
2022/05/10 06:26:20;;;;;;;;;;;;;;;;;;5088265;27;19923;-69
2022/05/10 06:28:46;;;;;;;;;;;;;;;;;;5083219;28;19912;-69
2022/05/10 06:33:16;;;;;;;;;;;;;;;;;;5088584;27;19939;-68
2022/05/10 06:40:40;;;;;;;;;;;;;;;;;;5151536;27;19976;-67
2022/05/10 06:45:47;;;;;;;;;;;;;;;;;;5088603;27;19920;-69
2022/05/10 06:50:15;;;;;;;;;;;;;;;;;;5089879;27;19922;-71
2022/05/10 06:52:41;;;;;;;;;;;;;;;;;;5087358;28;20012;-70
2022/05/10 06:56:42;;;;;;;;;;;;;;;;;;5089468;27;19924;-68
2022/05/10 06:59:08;;;;;;;;;;;;;;;;;;5094961;28;19912;-69
2022/05/10 07:02:45;;;;;;;;;;;;;;;;;;5089902;27;19925;-70
2022/05/10 07:05:11;;;;;;;;;;;;;;;;;;5089736;28;19999;-70
2022/05/10 07:07:37;;;;;;;;;;;;;;;;;;5087375;28;20007;-68
2022/05/10 07:10:31;;;;;;;;;;;;;;;;;;5073917;28;19974;-68
2022/05/10 07:12:58;;;;;;;;;;;;;;;;;;5068366;28;19913;-68
2022/05/10 07:15:24;;;;;;;;;;;;;;;;;;5067640;28;19931;-68
2022/05/10 07:17:50;;;;;;;;;;;;;;;;;;5070187;28;19964;-68
2022/05/10 07:21:59;;;;;;;;;;;;;;;;;;5089983;27;19912;-68
2022/05/10 07:24:25;;;;;;;;;;;;;;;;;;5087330;28;19918;-68
2022/05/10 07:26:51;;;;;;;;;;;;;;;;;;5085044;28;19947;-68
2022/05/10 07:29:17;;;;;;;;;;;;;;;;;;5080827;28;20010;-69
2022/05/10 07:32:20;;;;;;;;;;;;;;;;;;5087960;27;20394;-69
2022/05/10 07:35:03;;;;;;;;;;;;;;;;;;5110792;27;19916;-69
2022/05/10 07:37:29;;;;;;;;;;;;;;;;;;5112006;28;20286;-68
2022/05/10 07:41:05;;;;;;;;;;;;;;;;;;5090767;27;19913;-70
2022/05/10 07:43:31;;;;;;;;;;;;;;;;;;5088400;28;19999;-69
2022/05/10 07:45:57;;;;;;;;;;;;;;;;;;5087493;28;20011;-68
2022/05/10 07:48:23;;;;;;;;;;;;;;;;;;5086238;28;19913;-72
2022/05/10 07:54:29;;;;;;;;;;;;;;;;;;5089535;27;20380;-69
2022/05/10 08:00:02;;;;;;;;;;;;;;;;;;5088955;28;19919;-70
2022/05/10 08:03:58;;;;;;;;;;;;;;;;;;5151155;27;19939;-69
2022/05/10 08:06:24;;;;;;;;;;;;;;;;;;5148938;27;20010;-70
2022/05/10 08:09:23;;;;;;;;;;;;;;;;;;5089594;28;20544;-69
2022/05/10 08:11:49;;;;;;;;;;;;;;;;;;5089325;28;19912;-69
2022/05/10 08:14:15;;;;;;;;;;;;;;;;;;5087215;28;19909;-70
2022/05/10 08:18:06;;;;;;;;;;;;;;;;;;5107707;27;19918;-68
2022/05/10 08:20:32;;;;;;;;;;;;;;;;;;5107218;28;19959;-69
2022/05/10 08:22:58;;;;;;;;;;;;;;;;;;5107557;28;19944;-70
2022/05/10 08:25:24;;;;;;;;;;;;;;;;;;5107222;28;20359;-68
2022/05/10 08:27:50;;;;;;;;;;;;;;;;;;5105415;28;19912;-69
2022/05/10 08:30:17;;;;;;;;;;;;;;;;;;5109656;27;19908;-68
2022/05/10 08:33:54;;;;;;;;;;;;;;;;;;5086092;27;19912;-67
2022/05/10 08:38:11;;;;;;;;;;;;;;;;;;5148211;27;19912;-70
2022/05/10 08:41:37;;;;;;;;;;;;;;;;;;5089843;27;19922;-68
2022/05/10 08:44:03;;;;;;;;;;;;;;;;;;5073077;28;20494;-68
2022/05/10 08:48:46;;;;;;;;;;;;;;;;;;5085973;27;19943;-67
2022/05/10 08:51:12;;;;;;;;;;;;;;;;;;5086095;28;19958;-68
2022/05/10 08:53:38;;;;;;;;;;;;;;;;;;5085558;28;19913;-67
2022/05/10 08:56:04;;;;;;;;;;;;;;;;;;5084623;28;19915;-68
2022/05/10 08:58:30;;;;;;;;;;;;;;;;;;5084519;28;19912;-68
2022/05/10 09:01:07;;;;;;;;;;;;;;;;;;5086238;27;19920;-69
2022/05/10 09:03:54;;;;;;;;;;;;;;;;;;5087603;27;19923;-68
2022/05/10 09:06:20;;;;;;;;;;;;;;;;;;5086602;28;19921;-68
2022/05/10 09:10:44;;;;;;;;;;;;;;;;;;5088522;27;19916;-67
2022/05/10 09:13:11;;;;;;;;;;;;;;;;;;5087249;28;20388;-68
2022/05/10 09:19:41;;;;;;;;;;;;;;;;;;5088654;27;19916;-68
2022/05/10 09:22:07;;;;;;;;;;;;;;;;;;5088979;28;20011;-68
2022/05/10 09:24:34;;;;;;;;;;;;;;;;;;5089358;28;19948;-67
2022/05/10 09:27:00;;;;;;;;;;;;;;;;;;5088778;28;20344;-67
2022/05/10 09:29:26;;;;;;;;;;;;;;;;;;5084197;28;19958;-67
2022/05/10 09:34:46;;;;;;;;;;;;;;;;;;5082571;28;19919;-68
2022/05/10 09:37:13;;;;;;;;;;;;;;;;;;5088804;28;19912;-68
2022/05/10 09:42:09;;;;;;;;;;;;;;;;;;5085538;27;19921;-67
2022/05/10 09:44:35;;;;;;;;;;;;;;;;;;5087244;28;19913;-67
2022/05/10 09:47:01;;;;;;;;;;;;;;;;;;5103361;28;19951;-67
2022/05/10 09:49:27;;;;;;;;;;;;;;;;;;5095267;28;19947;-67
2022/05/10 09:51:53;;;;;;;;;;;;;;;;;;5085415;28;20493;-68
2022/05/10 09:56:43;;;;;;;;;;;;;;;;;;5085178;27;19920;-68
2022/05/10 10:00:27;;;;;;;;;;;;;;;;;;5084924;27;19912;-69
2022/05/10 10:04:52;;;;;;;;;;;;;;;;;;5089214;27;19916;-67
2022/05/10 10:09:23;;;;;;;;;;;;;;;;;;5141846;27;19915;-67
2022/05/10 10:11:49;;;;;;;;;;;;;;;;;;5122770;28;20038;-69
2022/05/10 10:14:15;;;;;;;;;;;;;;;;;;5127352;28;20006;-69
2022/05/10 10:16:41;;;;;;;;;;;;;;;;;;5126835;28;20024;-73
2022/05/10 10:19:07;;;;;;;;;;;;;;;;;;5126037;28;19908;-75
2022/05/10 10:21:34;;;;;;;;;;;;;;;;;;5127409;28;19908;-74
2022/05/10 10:24:00;;;;;;;;;;;;;;;;;;5127323;28;20325;-75
2022/05/10 10:29:43;;;;;;;;;;;;;;;;;;5086268;27;19917;-76
2022/05/10 10:32:09;;;;;;;;;;;;;;;;;;5083812;28;19912;-76
2022/05/10 10:34:35;;;;;;;;;;;;;;;;;;5080595;28;19909;-77
2022/05/10 10:37:01;;;;;;;;;;;;;;;;;;5082469;28;20445;-78
2022/05/10 10:39:27;;;;;;;;;;;;;;;;;;5083146;28;19963;-76
2022/05/10 10:41:53;;;;;;;;;;;;;;;;;;5088888;28;19939;-76
2022/05/10 10:46:31;;;;;;;;;;;;;;;;;;5149327;27;20010;-76
2022/05/10 10:48:57;;;;;;;;;;;;;;;;;;5146829;27;19911;-74
2022/05/10 10:51:23;;;;;;;;;;;;;;;;;;5127060;27;19952;-77
2022/05/10 10:53:49;;;;;;;;;;;;;;;;;;5149840;27;19912;-79
2022/05/10 10:56:15;;;;;;;;;;;;;;;;;;5131284;27;20379;-79
2022/05/10 10:58:41;;;;;;;;;;;;;;;;;;5149179;27;19958;-76
2022/05/10 11:01:07;;;;;;;;;;;;;;;;;;5150645;27;19972;-76
2022/05/10 11:03:33;;;;;;;;;;;;;;;;;;5115655;28;19919;-78
2022/05/10 11:05:59;;;;;;;;;;;;;;;;;;5130747;28;20010;-81
2022/05/10 11:08:25;;;;;;;;;;;;;;;;;;5131263;28;20352;-77
2022/05/10 11:10:51;;;;;;;;;;;;;;;;;;5130519;28;19934;-77
2022/05/10 11:13:17;;;;;;;;;;;;;;;;;;5131629;27;20303;-78
2022/05/10 11:15:43;;;;;;;;;;;;;;;;;;5130549;28;19915;-77
2022/05/10 11:18:09;;;;;;;;;;;;;;;;;;5128704;28;19920;-76
2022/05/10 11:20:35;;;;;;;;;;;;;;;;;;5128888;28;20002;-77
2022/05/10 11:23:03;;;;;;;;;;;;;;;;;;5129321;28;20019;-77
2022/05/10 11:25:29;;;;;;;;;;;;;;;;;;5129122;28;19971;-76
2022/05/10 11:27:56;;;;;;;;;;;;;;;;;;5129778;28;19951;-77
2022/05/10 11:30:21;;;;;;;;;;;;;;;;;;5132379;27;19911;-76
2022/05/10 11:32:47;;;;;;;;;;;;;;;;;;5142271;27;19907;-74
2022/05/10 11:35:14;;;;;;;;;;;;;;;;;;5129662;27;20364;-75
2022/05/10 11:37:40;;;;;;;;;;;;;;;;;;5130295;28;19915;-73
2022/05/10 11:40:06;;;;;;;;;;;;;;;;;;5112085;28;19943;-77
2022/05/10 11:42:33;;;;;;;;;;;;;;;;;;5127434;27;19961;-76
2022/05/10 11:44:59;;;;;;;;;;;;;;;;;;5152848;27;19923;-75
2022/05/10 11:47:25;;;;;;;;;;;;;;;;;;5150862;27;20324;-75
2022/05/10 11:49:51;;;;;;;;;;;;;;;;;;5151388;27;19907;-74
2022/05/10 11:52:17;;;;;;;;;;;;;;;;;;5150985;27;19911;-75
2022/05/10 11:54:43;;;;;;;;;;;;;;;;;;5149797;27;19908;-70
2022/05/10 11:57:09;;;;;;;;;;;;;;;;;;5139080;27;20543;-70
2022/05/10 11:59:40;;;;;;;;;;;;;;;;;;5136074;27;19907;-69
2022/05/10 12:02:07;;;;;;;;;;;;;;;;;;5124053;27;19916;-69
2022/05/10 12:04:33;;;;;;;;;;;;;;;;;;5115241;28;19919;-70
2022/05/10 12:06:59;;;;;;;;;;;;;;;;;;5114635;28;19915;-71
2022/05/10 12:09:25;;;;;;;;;;;;;;;;;;5113574;27;19968;-70
2022/05/10 12:11:54;;;;;;;;;;;;;;;;;;5114197;28;19908;-69
2022/05/10 12:22:34;;;;;;;;;;;;;;;;;;5116857;27;19918;-70
2022/05/10 12:25:00;;;;;;;;;;;;;;;;;;5115065;28;20371;-69
2022/05/10 12:27:26;;;;;;;;;;;;;;;;;;5116146;28;19911;-70
2022/05/10 12:29:52;;;;;;;;;;;;;;;;;;5115976;28;20412;-72
2022/05/10 12:32:21;;;;;;;;;;;;;;;;;;5115343;27;19908;-71
2022/05/10 12:34:47;;;;;;;;;;;;;;;;;;5136681;27;19911;-72
2022/05/10 12:37:13;;;;;;;;;;;;;;;;;;5131947;27;20360;-71
2022/05/10 12:39:39;;;;;;;;;;;;;;;;;;5117016;27;19916;-71
2022/05/10 12:42:06;;;;;;;;;;;;;;;;;;5115594;28;20314;-71
2022/05/10 12:44:33;;;;;;;;;;;;;;;;;;5111382;28;19919;-72
2022/05/10 12:46:59;;;;;;;;;;;;;;;;;;5111672;28;19915;-72
2022/05/10 12:49:25;;;;;;;;;;;;;;;;;;5112785;28;20302;-72
2022/05/10 12:51:52;;;;;;;;;;;;;;;;;;5111746;28;19915;-72
2022/05/10 12:54:18;;;;;;;;;;;;;;;;;;5114145;28;19908;-71
2022/05/10 12:56:44;;;;;;;;;;;;;;;;;;5111209;27;20002;-71
2022/05/10 12:59:10;;;;;;;;;;;;;;;;;;5133890;27;19953;-71
2022/05/10 13:01:36;;;;;;;;;;;;;;;;;;5136273;27;19911;-73
2022/05/10 13:04:03;;;;;;;;;;;;;;;;;;5135923;27;20355;-74
2022/05/10 13:06:30;;;;;;;;;;;;;;;;;;5136267;27;19920;-74
2022/05/10 13:08:56;;;;;;;;;;;;;;;;;;5137654;27;19914;-73
2022/05/10 13:11:22;;;;;;;;;;;;;;;;;;5135808;27;19907;-74
2022/05/10 13:13:48;;;;;;;;;;;;;;;;;;5136327;27;20002;-74
2022/05/10 13:16:14;;;;;;;;;;;;;;;;;;5136091;27;19961;-73
2022/05/10 13:18:40;;;;;;;;;;;;;;;;;;5135876;27;20355;-73
2022/05/10 13:21:06;;;;;;;;;;;;;;;;;;5136257;27;20009;-73
2022/05/10 13:23:34;;;;;;;;;;;;;;;;;;5117165;27;20264;-73
2022/05/10 13:26:00;;;;;;;;;;;;;;;;;;5124467;27;20308;-72
2022/05/10 13:28:26;;;;;;;;;;;;;;;;;;5156687;27;19952;-72
2022/05/10 13:30:52;;;;;;;;;;;;;;;;;;5156569;27;20001;-72
2022/05/10 13:33:18;;;;;;;;;;;;;;;;;;5156071;27;19907;-73
2022/05/10 13:35:44;;;;;;;;;;;;;;;;;;5147788;27;19911;-73
2022/05/10 13:38:10;;;;;;;;;;;;;;;;;;5135876;27;19918;-72
2022/05/10 13:40:38;;;;;;;;;;;;;;;;;;5134985;27;19914;-74
2022/05/10 13:43:04;;;;;;;;;;;;;;;;;;5114596;27;19990;-72
2022/05/10 13:45:30;;;;;;;;;;;;;;;;;;5114579;28;19969;-74
2022/05/10 13:47:56;;;;;;;;;;;;;;;;;;5113260;28;20367;-73
2022/05/10 13:50:22;;;;;;;;;;;;;;;;;;5114841;28;19912;-74
2022/05/10 13:52:48;;;;;;;;;;;;;;;;;;5114212;28;19965;-74
2022/05/10 13:55:14;;;;;;;;;;;;;;;;;;5112543;28;20383;-74
2022/05/10 13:57:39;;;;;;;;;;;;;;;;;;5112992;28;19912;-74
2022/05/10 14:00:08;;;;;;;;;;;;;;;;;;5112754;28;20257;-75
2022/05/10 14:02:34;;;;;;;;;;;;;;;;;;5114668;28;19908;-75
2022/05/10 14:05:00;;;;;;;;;;;;;;;;;;5114537;28;19919;-75
2022/05/10 14:07:26;;;;;;;;;;;;;;;;;;5114350;28;20011;-74
2022/05/10 14:09:55;;;;;;;;;;;;;;;;;;5114972;28;20344;-75
2022/05/10 14:12:23;;;;;;;;;;;;;;;;;;5113207;28;20260;-74
2022/05/10 14:14:50;;;;;;;;;;;;;;;;;;5114495;28;20081;-75
2022/05/10 14:17:16;;;;;;;;;;;;;;;;;;5113183;28;19912;-74
2022/05/10 14:19:42;;;;;;;;;;;;;;;;;;5114083;28;19908;-75
2022/05/10 14:22:08;;;;;;;;;;;;;;;;;;5114241;28;19908;-74
2022/05/10 14:24:34;;;;;;;;;;;;;;;;;;5114262;28;19912;-75
2022/05/10 14:27:00;;;;;;;;;;;;;;;;;;5114439;28;20411;-75
2022/05/10 14:29:26;;;;;;;;;;;;;;;;;;5114056;28;19911;-75
2022/05/10 14:31:52;;;;;;;;;;;;;;;;;;5112948;28;19915;-76
2022/05/10 14:34:18;;;;;;;;;;;;;;;;;;5114125;28;19969;-75
2022/05/10 14:36:48;;;;;;;;;;;;;;;;;;5113745;28;19908;-74
2022/05/10 14:39:14;;;;;;;;;;;;;;;;;;5114976;28;20016;-75
2022/05/10 14:41:41;;;;;;;;;;;;;;;;;;5114194;28;20037;-75
2022/05/10 14:44:07;;;;;;;;;;;;;;;;;;5113507;28;20037;-74
2022/05/10 14:46:33;;;;;;;;;;;;;;;;;;5114107;28;20019;-75
2022/05/10 14:48:59;;;;;;;;;;;;;;;;;;5113708;28;20336;-75
2022/05/10 14:51:25;;;;;;;;;;;;;;;;;;5114086;28;20425;-74
2022/05/10 14:53:51;;;;;;;;;;;;;;;;;;5112722;28;19990;-74
2022/05/10 14:56:17;;;;;;;;;;;;;;;;;;5113636;28;20288;-75
2022/05/10 14:58:43;;;;;;;;;;;;;;;;;;5113995;28;19962;-75
2022/05/10 15:01:09;;;;;;;;;;;;;;;;;;5114230;28;19915;-75
2022/05/10 15:03:36;;;;;;;;;;;;;;;;;;5113526;28;20370;-75
2022/05/10 15:06:02;;;;;;;;;;;;;;;;;;5112635;28;19947;-76
2022/05/10 15:08:28;;;;;;;;;;;;;;;;;;5113881;28;20330;-74
2022/05/10 15:10:55;;;;;;;;;;;;;;;;;;5113586;28;19908;-75
2022/05/10 15:13:22;;;;;;;;;;;;;;;;;;5114179;28;19961;-75
2022/05/10 15:15:48;;;;;;;;;;;;;;;;;;5113780;28;19942;-74
2022/05/10 15:20:58;;;;;;;;;;;;;;;;;;5114106;28;20037;-74
2022/05/10 15:23:24;;;;;;;;;;;;;;;;;;5113745;28;20347;-76
2022/05/10 15:25:50;;;;;;;;;;;;;;;;;;5111768;28;20015;-76
2022/05/10 15:28:16;;;;;;;;;;;;;;;;;;5114024;28;19925;-76
2022/05/10 15:30:42;;;;;;;;;;;;;;;;;;5113925;28;20360;-76
2022/05/10 15:33:08;;;;;;;;;;;;;;;;;;5116821;28;19919;-76
2022/05/10 15:35:34;;;;;;;;;;;;;;;;;;5117580;28;19939;-76
2022/05/10 15:38:00;;;;;;;;;;;;;;;;;;5117507;28;19934;-76
2022/05/10 15:40:27;;;;;;;;;;;;;;;;;;5115823;28;20364;-75
2022/05/10 15:42:53;;;;;;;;;;;;;;;;;;5117439;28;20416;-76
2022/05/10 15:45:20;;;;;;;;;;;;;;;;;;5116771;28;19963;-76
2022/05/10 15:47:46;;;;;;;;;;;;;;;;;;5117473;28;19907;-75
2022/05/10 15:50:12;;;;;;;;;;;;;;;;;;5117371;28;19929;-75
2022/05/10 15:52:38;;;;;;;;;;;;;;;;;;5116820;28;20462;-75
2022/05/10 15:55:04;;;;;;;;;;;;;;;;;;5115941;28;19912;-75
2022/05/10 15:57:31;;;;;;;;;;;;;;;;;;5117118;28;19908;-76
2022/05/10 15:59:57;;;;;;;;;;;;;;;;;;5116559;28;19915;-73
2022/05/10 16:02:23;;;;;;;;;;;;;;;;;;5117033;28;20313;-75
2022/05/10 16:04:53;;;;;;;;;;;;;;;;;;5116815;28;19962;-74
2022/05/10 16:07:19;;;;;;;;;;;;;;;;;;5116537;28;19951;-74
2022/05/10 16:09:45;;;;;;;;;;;;;;;;;;5116733;28;19908;-74
2022/05/10 16:12:11;;;;;;;;;;;;;;;;;;5117409;28;19907;-73
2022/05/10 16:14:37;;;;;;;;;;;;;;;;;;5116333;28;19961;-74
2022/05/10 16:17:03;;;;;;;;;;;;;;;;;;5116706;28;20279;-74
2022/05/10 16:19:29;;;;;;;;;;;;;;;;;;5116714;28;19908;-74
2022/05/10 16:21:55;;;;;;;;;;;;;;;;;;5116241;28;19908;-74
2022/05/10 16:24:21;;;;;;;;;;;;;;;;;;5115174;28;19908;-75
2022/05/10 16:29:44;;;;;;;;;;;;;;;;;;5116072;28;20000;-74
2022/05/10 16:32:10;;;;;;;;;;;;;;;;;;5116485;28;19947;-74
2022/05/10 16:34:36;;;;;;;;;;;;;;;;;;5116119;28;19943;-73
2022/05/10 16:37:02;;;;;;;;;;;;;;;;;;5116790;28;19908;-74
2022/05/10 16:39:28;;;;;;;;;;;;;;;;;;5116300;28;20284;-73
2022/05/10 16:41:54;;;;;;;;;;;;;;;;;;5115734;28;19908;-74
2022/05/10 16:44:20;;;;;;;;;;;;;;;;;;5115850;28;19965;-73
2022/05/10 16:46:46;;;;;;;;;;;;;;;;;;5114943;28;19908;-74
2022/05/10 16:49:12;;;;;;;;;;;;;;;;;;5115673;28;19968;-73
2022/05/10 16:55:13;;;;;;;;;;;;;;;;;;5091764;27;20393;-74
2022/05/10 16:57:39;;;;;;;;;;;;;;;;;;5090782;28;19920;-74
2022/05/10 17:00:06;;;;;;;;;;;;;;;;;;5091209;28;19909;-74
2022/05/10 17:02:34;;;;;;;;;;;;;;;;;;5091172;28;19912;-73
2022/05/10 17:05:01;;;;;;;;;;;;;;;;;;5090696;28;19940;-73
2022/05/10 17:07:28;;;;;;;;;;;;;;;;;;5090990;28;19952;-73
2022/05/10 17:09:54;;;;;;;;;;;;;;;;;;5090533;28;19909;-74
2022/05/10 17:12:20;;;;;;;;;;;;;;;;;;5090918;28;19909;-74
2022/05/10 17:14:46;;;;;;;;;;;;;;;;;;5090854;28;19916;-74
2022/05/10 17:17:12;;;;;;;;;;;;;;;;;;5090599;28;20027;-74
2022/05/10 17:19:38;;;;;;;;;;;;;;;;;;5090811;28;20365;-74
2022/05/10 17:22:04;;;;;;;;;;;;;;;;;;5089497;28;19909;-75
2022/05/10 17:24:30;;;;;;;;;;;;;;;;;;5090333;28;20339;-77
2022/05/10 17:26:57;;;;;;;;;;;;;;;;;;5090578;28;19915;-76
2022/05/10 17:29:23;;;;;;;;;;;;;;;;;;5090562;28;19954;-75
2022/05/10 17:31:49;;;;;;;;;;;;;;;;;;5090092;28;19909;-75
2022/05/10 17:34:15;;;;;;;;;;;;;;;;;;5090892;28;20019;-74
2022/05/10 17:38:08;;;;;;;;;;;;;;;;;;5091216;28;19916;-74
2022/05/10 17:40:34;;;;;;;;;;;;;;;;;;5091108;28;19958;-73
2022/05/10 17:43:00;;;;;;;;;;;;;;;;;;5091096;28;19908;-74
2022/05/10 17:45:26;;;;;;;;;;;;;;;;;;5090687;28;19908;-74
2022/05/10 17:47:52;;;;;;;;;;;;;;;;;;5091078;28;19908;-74
2022/05/10 17:50:18;;;;;;;;;;;;;;;;;;5091093;28;20276;-74
2022/05/10 17:55:00;;;;;;;;;;;;;;;;;;5092021;27;19923;-76
2022/05/10 17:57:26;;;;;;;;;;;;;;;;;;5091270;28;19999;-73
2022/05/10 17:59:52;;;;;;;;;;;;;;;;;;5090809;28;20343;-76
2022/05/10 18:02:18;;;;;;;;;;;;;;;;;;5090941;28;19908;-74
2022/05/10 18:04:44;;;;;;;;;;;;;;;;;;5090998;28;19908;-74
2022/05/10 18:09:50;;;;;;;;;;;;;;;;;;5091385;27;19923;-75
2022/05/10 18:12:16;;;;;;;;;;;;;;;;;;5091105;28;20007;-74
2022/05/10 18:15:35;;;;;;;;;;;;;;;;;;5091093;28;20289;-72
2022/05/10 18:19:09;;;;;;;;;;;;;;;;;;5091156;27;19918;-73
2022/05/10 18:21:36;;;;;;;;;;;;;;;;;;5090712;28;20262;-74
2022/05/10 18:24:02;;;;;;;;;;;;;;;;;;5091059;28;19908;-73
2022/05/10 18:26:28;;;;;;;;;;;;;;;;;;5089601;28;19908;-75
2022/05/10 18:28:54;;;;;;;;;;;;;;;;;;5090594;28;19909;-75
2022/05/10 18:32:44;;;;;;;;;;;;;;;;;;5091167;27;19916;-72
2022/05/10 18:35:12;;;;;;;;;;;;;;;;;;5090751;28;19923;-73